createdAt,value
2023-10-23T00:00:29.239Z,100405.91
2023-10-23T00:01:42.480Z,100405.91
2023-10-23T00:02:44.499Z,100411.16
2023-10-23T00:03:46.808Z,100407.69
2023-10-23T00:04:49.152Z,100405.06
2023-10-23T00:05:51.289Z,100409.44
2023-10-23T00:06:53.284Z,100401.56
2023-10-23T00:07:55.391Z,100397.25
2023-10-23T00:08:57.520Z,100395.47
2023-10-23T00:09:59.449Z,100397.25
2023-10-23T00:11:01.349Z,100399.88
2023-10-23T00:13:17.403Z,100394.63
2023-10-23T00:14:19.425Z,100394.63
2023-10-23T00:15:21.369Z,100394.63
2023-10-23T00:16:24.112Z,100386.78
2023-10-23T00:17:26.148Z,100386.81
2023-10-23T00:18:28.710Z,100393.78
2023-10-23T00:19:30.696Z,100387.66
2023-10-23T00:20:32.795Z,100395.50
2023-10-23T00:21:34.701Z,100397.25
2023-10-23T00:22:36.929Z,100399.00
2023-10-23T00:23:39.133Z,100396.38
2023-10-23T00:24:41.437Z,100398.13
2023-10-23T00:25:43.562Z,100389.41
2023-10-23T00:26:45.545Z,100388.53
2023-10-23T00:27:47.561Z,100384.19
2023-10-23T00:28:50.069Z,100375.47
2023-10-23T00:29:53.497Z,100388.53
2023-10-23T00:30:56.623Z,100388.53
2023-10-23T00:31:58.579Z,100382.44
2023-10-23T00:33:00.963Z,100378.97
2023-10-23T00:34:02.994Z,100383.31
2023-10-23T00:35:06.427Z,100379.81
2023-10-23T00:36:08.394Z,100382.44
2023-10-23T00:37:10.479Z,100380.69
2023-10-23T00:38:12.562Z,100380.69
2023-10-23T00:39:15.459Z,100385.94
2023-10-23T00:40:17.561Z,100379.81
2023-10-23T00:41:20.396Z,100383.28
2023-10-23T00:42:22.253Z,100384.19
2023-10-23T00:43:26.145Z,100382.44
2023-10-23T00:44:29.276Z,100376.34
2023-10-23T00:45:31.961Z,100376.34
2023-10-23T00:46:34.456Z,100372.84
2023-10-23T00:47:36.810Z,100373.75
2023-10-23T00:48:39.095Z,100382.47
2023-10-23T00:49:42.758Z,100379.84
2023-10-23T00:50:44.777Z,100376.34
2023-10-23T00:51:47.462Z,100378.09
2023-10-23T00:52:49.455Z,100378.09
2023-10-23T00:53:52.984Z,100382.44
2023-10-23T00:54:55.585Z,100379.84
2023-10-23T00:55:59.271Z,100380.72
2023-10-23T00:57:01.496Z,100380.75
2023-10-23T00:58:03.613Z,100383.38
2023-10-23T00:59:05.926Z,100376.41
2023-10-23T01:00:09.403Z,100382.50
2023-10-23T01:01:15.051Z,100380.75
2023-10-23T01:02:17.631Z,100377.25
2023-10-23T01:03:19.777Z,100375.50
2023-10-23T01:04:22.362Z,100371.16
2023-10-23T01:05:24.818Z,100369.41
2023-10-23T01:06:27.516Z,100373.78
2023-10-23T01:07:29.454Z,100367.66
2023-10-23T01:08:31.925Z,100367.66
2023-10-23T01:09:33.970Z,100365.91
2023-10-23T01:10:36.931Z,100364.16
2023-10-23T01:11:38.859Z,100365.91
2023-10-23T01:12:42.611Z,100372.88
2023-10-23T01:13:44.621Z,100371.16
2023-10-23T01:14:46.684Z,100369.41
2023-10-23T01:15:48.697Z,100366.78
2023-10-23T01:16:51.029Z,100367.66
2023-10-23T01:17:53.307Z,100360.66
2023-10-23T01:18:55.342Z,100353.69
2023-10-23T01:19:57.410Z,100356.31
2023-10-23T01:20:59.421Z,100357.19
2023-10-23T01:22:01.641Z,100357.19
2023-10-23T01:23:04.650Z,100357.19
2023-10-23T01:24:09.513Z,100362.41
2023-10-23T01:25:14.932Z,100360.69
2023-10-23T01:26:16.888Z,100365.00
2023-10-23T01:27:19.195Z,100362.38
2023-10-23T01:28:21.247Z,100363.28
2023-10-23T01:29:23.512Z,100360.69
2023-10-23T01:30:25.559Z,100355.44
2023-10-23T01:31:27.753Z,100358.06
2023-10-23T01:32:29.766Z,100355.44
2023-10-23T01:33:32.076Z,100353.69
2023-10-23T01:34:34.317Z,100357.19
2023-10-23T01:35:36.307Z,100351.94
2023-10-23T01:36:39.304Z,100352.81
2023-10-23T01:37:45.690Z,100357.19
2023-10-23T01:38:47.601Z,100360.66
2023-10-23T01:39:49.677Z,100362.41
2023-10-23T01:40:51.576Z,100364.13
2023-10-23T01:41:53.594Z,100361.53
2023-10-23T01:42:55.870Z,100363.28
2023-10-23T01:43:57.858Z,100358.03
2023-10-23T01:45:00.098Z,100359.78
2023-10-23T01:46:02.290Z,100356.31
2023-10-23T01:47:04.352Z,100349.31
2023-10-23T01:48:06.802Z,100348.44
2023-10-23T01:49:08.745Z,100345.84
2023-10-23T01:50:11.118Z,100350.19
2023-10-23T01:51:13.061Z,100347.59
2023-10-23T01:52:15.058Z,100344.09
2023-10-23T01:53:16.976Z,100347.56
2023-10-23T01:54:19.061Z,100351.06
2023-10-23T01:55:21.142Z,100338.88
2023-10-23T01:56:23.145Z,100343.22
2023-10-23T01:57:25.114Z,100339.72
2023-10-23T01:58:27.163Z,100340.63
2023-10-23T01:59:29.107Z,100336.25
2023-10-23T02:00:31.302Z,100331.91
2023-10-23T02:01:35.031Z,100323.16
2023-10-23T02:02:37.750Z,100314.47
2023-10-23T02:03:39.816Z,100317.09
2023-10-23T02:04:42.158Z,100310.13
2023-10-23T02:05:44.221Z,100315.34
2023-10-23T02:06:46.252Z,100315.34
2023-10-23T02:07:48.172Z,100317.94
2023-10-23T02:08:50.276Z,100306.63
2023-10-23T02:09:52.333Z,100306.63
2023-10-23T02:10:54.538Z,100304.91
2023-10-23T02:11:56.627Z,100306.63
2023-10-23T02:12:58.764Z,100305.78
2023-10-23T02:14:00.774Z,100297.94
2023-10-23T02:15:05.410Z,100287.47
2023-10-23T02:16:08.262Z,100290.06
2023-10-23T02:17:10.453Z,100287.47
2023-10-23T02:18:12.511Z,100285.72
2023-10-23T02:19:14.790Z,100290.94
2023-10-23T02:20:16.787Z,100290.09
2023-10-23T02:21:18.938Z,100286.59
2023-10-23T02:22:21.117Z,100277.88
2023-10-23T02:23:23.081Z,100287.47
2023-10-23T02:24:25.156Z,100283.13
2023-10-23T02:25:27.100Z,100284.00
2023-10-23T02:26:33.246Z,100282.25
2023-10-23T02:27:35.220Z,100273.50
2023-10-23T02:28:37.275Z,100279.63
2023-10-23T02:29:42.135Z,100283.97
2023-10-23T02:30:44.493Z,100289.22
2023-10-23T02:31:46.591Z,100287.47
2023-10-23T02:32:48.697Z,100289.22
2023-10-23T02:33:51.154Z,100277.88
2023-10-23T02:34:53.249Z,100277.03
2023-10-23T02:35:55.303Z,100277.88
2023-10-23T02:36:57.337Z,100270.03
2023-10-23T02:37:59.310Z,100261.34
2023-10-23T02:39:01.518Z,100260.44
2023-10-23T02:40:05.136Z,100268.28
2023-10-23T02:41:07.286Z,100261.31
2023-10-23T02:42:09.249Z,100264.81
2023-10-23T02:43:11.294Z,100261.31
2023-10-23T02:44:13.254Z,100269.16
2023-10-23T02:45:16.686Z,100263.06
2023-10-23T02:46:18.649Z,100263.06
2023-10-23T02:47:20.693Z,100263.06
2023-10-23T02:48:22.839Z,100265.66
2023-10-23T02:49:25.624Z,100261.31
2023-10-23T02:50:27.612Z,100263.06
2023-10-23T02:51:29.680Z,100258.72
2023-10-23T02:52:31.623Z,100265.66
2023-10-23T02:53:33.826Z,100278.75
2023-10-23T02:54:36.238Z,100265.66
2023-10-23T02:55:41.675Z,100271.78
2023-10-23T02:56:43.949Z,100263.94
2023-10-23T02:57:46.490Z,100257.81
2023-10-23T02:58:48.596Z,100255.19
2023-10-23T02:59:50.596Z,100246.50
2023-10-23T03:00:52.765Z,100254.31
2023-10-23T03:01:55.312Z,100252.56
2023-10-23T03:02:57.545Z,100253.41
2023-10-23T03:04:00.741Z,100255.16
2023-10-23T03:05:03.147Z,100250.78
2023-10-23T03:06:06.025Z,100254.28
2023-10-23T03:07:08.123Z,100254.28
2023-10-23T03:08:10.178Z,100251.69
2023-10-23T03:09:13.582Z,100249.09
2023-10-23T03:10:15.863Z,100242.97
2023-10-23T03:11:17.950Z,100242.97
2023-10-23T03:12:20.615Z,100244.72
2023-10-23T03:13:22.817Z,100242.09
2023-10-23T03:14:25.034Z,100238.63
2023-10-23T03:15:27.796Z,100236.88
2023-10-23T03:16:30.911Z,100231.63
2023-10-23T03:17:32.906Z,100231.66
2023-10-23T03:18:35.035Z,100222.94
2023-10-23T03:19:37.189Z,100229.03
2023-10-23T03:20:39.484Z,100224.66
2023-10-23T03:21:41.542Z,100229.03
2023-10-23T03:22:43.614Z,100224.66
2023-10-23T03:23:45.600Z,100223.81
2023-10-23T03:24:47.798Z,100210.75
2023-10-23T03:25:49.759Z,100208.13
2023-10-23T03:26:51.743Z,100213.34
2023-10-23T03:27:53.701Z,100203.75
2023-10-23T03:30:07.682Z,100208.16
2023-10-23T03:31:09.685Z,100209.88
2023-10-23T03:32:11.652Z,100204.66
2023-10-23T03:33:13.777Z,100205.53
2023-10-23T03:34:17.565Z,100199.44
2023-10-23T03:35:19.736Z,100201.19
2023-10-23T03:36:21.881Z,100199.44
2023-10-23T03:37:23.897Z,100191.59
2023-10-23T03:38:25.755Z,100190.72
2023-10-23T03:39:27.743Z,100191.56
2023-10-23T03:40:29.689Z,100191.56
2023-10-23T03:41:31.926Z,100192.44
2023-10-23T03:42:34.272Z,100186.38
2023-10-23T03:43:36.375Z,100187.22
2023-10-23T03:44:38.698Z,100189.00
2023-10-23T03:45:42.696Z,100188.97
2023-10-23T03:46:45.494Z,100182.88
2023-10-23T03:47:47.681Z,100186.38
2023-10-23T03:48:49.740Z,100192.47
2023-10-23T03:49:52.104Z,100190.75
2023-10-23T03:50:54.103Z,100182.03
2023-10-23T03:51:56.099Z,100181.16
2023-10-23T03:52:58.509Z,100181.16
2023-10-23T03:54:00.844Z,100186.38
2023-10-23T03:55:02.756Z,100175.91
2023-10-23T03:56:06.657Z,100169.84
2023-10-23T03:57:08.906Z,100175.06
2023-10-23T03:58:11.107Z,100179.41
2023-10-23T03:59:13.024Z,100168.06
2023-10-23T04:00:15.473Z,100175.94
2023-10-23T04:01:17.464Z,100172.47
2023-10-23T04:02:19.606Z,100174.19
2023-10-23T04:03:21.748Z,100171.56
2023-10-23T04:04:24.021Z,100170.69
2023-10-23T04:05:26.103Z,100168.09
2023-10-23T04:06:28.163Z,100159.41
2023-10-23T04:07:30.127Z,100155.00
2023-10-23T04:10:02.524Z,100155.00
2023-10-23T04:11:06.024Z,100151.56
2023-10-23T04:12:08.438Z,100155.00
2023-10-23T04:13:10.444Z,100148.03
2023-10-23T04:14:12.400Z,100153.28
2023-10-23T04:15:14.664Z,100153.28
2023-10-23T04:16:17.444Z,100150.66
2023-10-23T04:17:19.741Z,100160.25
2023-10-23T04:18:22.840Z,100155.03
2023-10-23T04:19:24.815Z,100155.00
2023-10-23T04:20:26.682Z,100148.06
2023-10-23T04:21:28.755Z,100143.69
2023-10-23T04:22:30.815Z,100140.22
2023-10-23T04:23:33.380Z,100137.59
2023-10-23T04:24:35.354Z,100136.72
2023-10-23T04:25:37.321Z,100139.31
2023-10-23T04:26:39.864Z,100141.09
2023-10-23T04:27:42.226Z,100143.72
2023-10-23T04:28:44.303Z,100137.59
2023-10-23T04:29:46.394Z,100128.88
2023-10-23T04:30:48.531Z,100123.66
2023-10-23T04:31:50.605Z,100124.53
2023-10-23T04:32:52.780Z,100117.53
2023-10-23T04:33:54.841Z,100116.69
2023-10-23T04:34:57.323Z,100112.31
2023-10-23T04:36:00.314Z,100125.41
2023-10-23T04:37:02.318Z,100125.41
2023-10-23T04:38:04.331Z,100114.94
2023-10-23T04:39:06.467Z,100113.19
2023-10-23T04:40:09.536Z,100114.94
2023-10-23T04:41:11.571Z,100119.31
2023-10-23T04:42:13.728Z,100116.69
2023-10-23T04:43:15.700Z,100114.06
2023-10-23T04:44:20.628Z,100107.94
2023-10-23T04:45:23.012Z,100100.09
2023-10-23T04:46:25.122Z,100093.16
2023-10-23T04:47:27.476Z,100088.78
2023-10-23T04:48:29.654Z,100089.66
2023-10-23T04:49:31.595Z,100089.63
2023-10-23T04:50:34.879Z,100087.91
2023-10-23T04:51:36.889Z,100084.41
2023-10-23T04:52:40.834Z,100085.28
2023-10-23T04:53:42.740Z,100086.19
2023-10-23T04:54:45.504Z,100080.94
2023-10-23T04:55:47.810Z,100068.75
2023-10-23T04:56:49.934Z,100065.25
2023-10-23T04:57:51.884Z,100060.00
2023-10-23T04:58:54.093Z,100063.50
2023-10-23T04:59:56.223Z,100056.53
2023-10-23T05:00:58.301Z,100065.22
2023-10-23T05:02:00.320Z,100062.63
2023-10-23T05:03:02.603Z,100063.50
2023-10-23T05:04:05.448Z,100069.59
2023-10-23T05:05:08.137Z,100065.22
2023-10-23T05:06:10.309Z,100061.75
2023-10-23T05:07:12.471Z,100060.88
2023-10-23T05:08:14.511Z,100061.72
2023-10-23T05:09:17.058Z,100051.25
2023-10-23T05:10:19.162Z,100046.03
2023-10-23T05:11:21.304Z,100051.25
2023-10-23T05:12:23.243Z,100046.88
2023-10-23T05:13:26.593Z,100044.28
2023-10-23T05:14:28.582Z,100055.63
2023-10-23T05:15:32.639Z,100058.22
2023-10-23T05:16:34.690Z,100053.81
2023-10-23T05:17:37.022Z,100057.31
2023-10-23T05:18:38.932Z,100054.72
2023-10-23T05:19:41.275Z,100052.94
2023-10-23T05:20:43.120Z,100055.56
2023-10-23T05:21:45.123Z,100045.97
2023-10-23T05:22:47.036Z,100042.47
2023-10-23T05:23:49.115Z,100042.50
2023-10-23T05:24:51.349Z,100053.78
2023-10-23T05:25:53.512Z,100052.94
2023-10-23T05:26:55.422Z,100049.47
2023-10-23T05:27:57.646Z,100036.34
2023-10-23T05:28:59.843Z,100032.00
2023-10-23T05:30:01.919Z,100034.63
2023-10-23T05:31:03.988Z,100035.47
2023-10-23T05:32:06.401Z,100031.13
2023-10-23T05:33:08.361Z,100027.66
2023-10-23T05:34:10.663Z,100024.16
2023-10-23T05:35:15.844Z,100021.53
2023-10-23T05:36:18.303Z,100030.25
2023-10-23T05:37:21.088Z,100024.16
2023-10-23T05:38:23.164Z,100022.41
2023-10-23T05:39:25.325Z,100025.03
2023-10-23T05:40:27.291Z,100022.41
2023-10-23T05:41:29.283Z,100012.84
2023-10-23T05:42:32.411Z,100018.94
2023-10-23T05:43:34.411Z,100024.16
2023-10-23T05:44:36.581Z,100016.31
2023-10-23T05:45:38.812Z,100017.16
2023-10-23T05:46:40.893Z,100020.66
2023-10-23T05:47:42.852Z,100015.44
2023-10-23T05:48:44.965Z,100016.31
2023-10-23T05:49:46.959Z,100017.16
2023-10-23T05:51:02.205Z,100008.44
2023-10-23T05:52:05.011Z,100013.66
2023-10-23T05:53:07.195Z,100014.53
2023-10-23T05:54:10.785Z,100023.25
2023-10-23T05:55:12.936Z,100019.75
2023-10-23T05:56:15.096Z,100026.72
2023-10-23T05:57:17.518Z,100024.06
2023-10-23T05:58:19.413Z,100017.09
2023-10-23T05:59:21.431Z,100022.34
2023-10-23T06:00:23.602Z,100020.56
2023-10-23T06:01:25.694Z,100020.56
2023-10-23T06:02:28.774Z,100011.84
2023-10-23T06:03:30.980Z,100011.84
2023-10-23T06:04:33.020Z,100003.13
2023-10-23T06:05:43.671Z,100003.97
2023-10-23T06:06:45.563Z,100008.34
2023-10-23T06:07:47.674Z,99997.88
2023-10-23T06:08:49.841Z,100003.13
2023-10-23T06:10:23.742Z,100000.50
2023-10-23T06:11:25.775Z,100002.22
2023-10-23T06:12:27.778Z,100010.94
2023-10-23T06:13:30.032Z,100010.06
2023-10-23T06:14:32.052Z,100000.50
2023-10-23T06:15:34.354Z,99992.63
2023-10-23T06:16:36.263Z,99996.09
2023-10-23T06:17:38.331Z,99998.72
2023-10-23T06:18:40.358Z,99997.84
2023-10-23T06:19:42.376Z,100004.78
2023-10-23T06:20:44.452Z,100004.78
2023-10-23T06:21:46.503Z,100007.41
2023-10-23T06:22:48.597Z,100007.41
2023-10-23T06:23:50.651Z,100006.53
2023-10-23T06:24:52.656Z,100005.66
2023-10-23T06:25:58.159Z,100007.41
2023-10-23T06:27:00.107Z,100013.53
2023-10-23T06:28:03.335Z,100014.41
2023-10-23T06:29:05.313Z,100010.03
2023-10-23T06:30:07.802Z,100018.75
2023-10-23T06:31:12.107Z,100011.78
2023-10-23T06:32:14.647Z,100004.78
2023-10-23T06:33:16.541Z,100001.31
2023-10-23T06:34:18.558Z,99996.09
2023-10-23T06:35:20.460Z,99997.84
2023-10-23T06:36:22.560Z,99999.59
2023-10-23T06:37:24.415Z,100003.97
2023-10-23T06:38:26.812Z,100003.09
2023-10-23T06:39:28.747Z,100009.22
2023-10-23T06:40:30.793Z,100007.47
2023-10-23T06:41:33.658Z,100004.03
2023-10-23T06:42:36.324Z,100004.88
2023-10-23T06:43:38.781Z,100004.91
2023-10-23T06:44:41.002Z,100003.16
2023-10-23T06:46:01.075Z,99987.47
2023-10-23T06:47:04.786Z,99985.75
2023-10-23T06:48:06.873Z,99989.25
2023-10-23T06:49:08.994Z,99970.94
2023-10-23T06:50:14.873Z,99975.31
2023-10-23T06:51:17.023Z,99971.84
2023-10-23T06:52:19.284Z,99969.22
2023-10-23T06:53:21.281Z,99965.75
2023-10-23T06:54:25.239Z,99966.66
2023-10-23T06:55:29.001Z,99971.00
2023-10-23T06:56:31.164Z,99963.16
2023-10-23T06:57:33.467Z,99967.53
2023-10-23T06:58:35.399Z,99961.44
2023-10-23T06:59:38.149Z,99963.16
2023-10-23T07:00:40.131Z,99953.56
2023-10-23T07:01:45.225Z,99957.91
2023-10-23T07:02:51.471Z,99952.66
2023-10-23T07:03:53.767Z,99951.78
2023-10-23T07:04:55.921Z,99944.81
2023-10-23T07:05:58.008Z,99943.06
2023-10-23T07:07:01.149Z,99938.69
2023-10-23T07:08:03.387Z,99931.72
2023-10-23T07:09:05.920Z,99936.06
2023-10-23T07:10:08.745Z,99928.22
2023-10-23T07:11:15.093Z,99920.38
2023-10-23T07:12:17.762Z,99919.47
2023-10-23T07:13:23.113Z,99920.34
2023-10-23T07:14:25.621Z,99925.59
2023-10-23T07:15:27.699Z,99922.06
2023-10-23T07:16:29.965Z,99917.72
2023-10-23T07:17:32.050Z,99912.50
2023-10-23T07:18:34.622Z,99907.28
2023-10-23T07:19:36.609Z,99893.31
2023-10-23T07:20:38.743Z,99886.31
2023-10-23T07:21:40.658Z,99884.56
2023-10-23T07:22:42.645Z,99881.09
2023-10-23T07:23:44.804Z,99876.72
2023-10-23T07:24:46.809Z,99871.47
2023-10-23T07:25:49.561Z,99857.53
2023-10-23T07:26:51.589Z,99862.75
2023-10-23T07:27:53.578Z,99862.75
2023-10-23T07:28:55.746Z,99859.25
2023-10-23T07:29:57.900Z,99853.13
2023-10-23T07:31:03.072Z,99842.69
2023-10-23T07:32:05.739Z,99842.66
2023-10-23T07:33:07.740Z,99841.78
2023-10-23T07:34:10.709Z,99833.94
2023-10-23T07:35:12.862Z,99824.34
2023-10-23T07:36:16.273Z,99827.78
2023-10-23T07:37:21.238Z,99829.56
2023-10-23T07:38:23.156Z,99820.84
2023-10-23T07:39:25.125Z,99817.34
2023-10-23T07:40:27.070Z,99816.50
2023-10-23T07:41:29.234Z,99810.41
2023-10-23T07:42:31.108Z,99779.00
2023-10-23T07:43:33.178Z,99783.38
2023-10-23T07:44:35.044Z,99778.13
2023-10-23T07:45:40.943Z,99779.00
2023-10-23T07:46:45.452Z,99792.09
2023-10-23T07:47:49.934Z,99787.72
2023-10-23T07:48:51.996Z,99793.81
2023-10-23T07:49:53.988Z,99792.06
2023-10-23T07:50:59.245Z,99792.06
2023-10-23T07:52:01.493Z,99798.16
2023-10-23T07:53:03.645Z,99791.16
2023-10-23T07:54:06.067Z,99802.50
2023-10-23T07:55:09.766Z,99804.22
2023-10-23T07:56:14.477Z,99809.47
2023-10-23T07:57:16.610Z,99798.13
2023-10-23T07:58:18.930Z,99792.03
2023-10-23T07:59:23.138Z,99806.00
2023-10-23T08:00:24.988Z,99815.59
2023-10-23T08:01:27.099Z,99816.44
2023-10-23T08:02:29.484Z,99821.69
2023-10-23T08:03:32.109Z,99826.06
2023-10-23T08:04:34.547Z,99830.41
2023-10-23T08:05:37.098Z,99837.38
2023-10-23T08:06:39.164Z,99832.13
2023-10-23T08:07:41.201Z,99829.50
2023-10-23T08:08:47.560Z,99833.00
2023-10-23T08:09:49.495Z,99833.00
2023-10-23T08:10:51.868Z,99833.88
2023-10-23T08:11:54.913Z,99832.09
2023-10-23T08:12:57.147Z,99824.22
2023-10-23T08:14:00.710Z,99821.59
2023-10-23T08:15:03.763Z,99819.88
2023-10-23T08:16:06.169Z,99814.66
2023-10-23T08:17:08.422Z,99814.66
2023-10-23T08:18:16.191Z,99820.78
2023-10-23T08:19:29.147Z,99831.25
2023-10-23T08:20:32.179Z,99825.97
2023-10-23T08:21:34.402Z,99825.97
2023-10-23T08:22:37.079Z,99818.13
2023-10-23T08:23:39.998Z,99815.50
2023-10-23T08:24:42.361Z,99806.81
2023-10-23T08:25:45.812Z,99798.94
2023-10-23T08:26:47.728Z,99805.88
2023-10-23T08:27:49.726Z,99791.06
2023-10-23T08:30:22.549Z,99778.84
2023-10-23T08:31:38.507Z,99777.97
2023-10-23T08:32:52.540Z,99771.03
2023-10-23T08:33:55.473Z,99762.28
2023-10-23T08:34:57.544Z,99760.47
2023-10-23T08:35:59.789Z,99751.81
2023-10-23T08:38:25.239Z,99741.34
2023-10-23T08:39:27.576Z,99741.34
2023-10-23T08:40:30.423Z,99736.97
2023-10-23T08:41:33.491Z,99722.16
2023-10-23T08:42:36.064Z,99718.63
2023-10-23T08:43:38.639Z,99713.41
2023-10-23T08:44:41.606Z,99708.16
2023-10-23T08:45:44.890Z,99709.94
2023-10-23T08:46:47.049Z,99708.19
2023-10-23T08:47:49.162Z,99703.81
2023-10-23T08:48:51.121Z,99701.22
2023-10-23T08:49:54.875Z,99706.44
2023-10-23T08:50:59.947Z,99704.72
2023-10-23T08:52:04.265Z,99696.88
2023-10-23T08:53:09.464Z,99696.00
2023-10-23T08:54:21.089Z,99692.53
2023-10-23T08:55:25.188Z,99694.25
2023-10-23T08:56:28.361Z,99689.00
2023-10-23T08:57:30.783Z,99692.50
2023-10-23T08:58:37.153Z,99682.91
2023-10-23T08:59:43.271Z,99685.53
2023-10-23T09:00:45.455Z,99683.81
2023-10-23T09:01:47.844Z,99689.91
2023-10-23T09:02:53.361Z,99690.81
2023-10-23T09:04:03.252Z,99689.06
2023-10-23T09:05:07.606Z,99688.19
2023-10-23T09:06:10.617Z,99683.81
2023-10-23T09:07:12.564Z,99682.94
2023-10-23T09:08:14.936Z,99676.81
2023-10-23T09:09:18.091Z,99685.56
2023-10-23T09:10:20.305Z,99669.88
2023-10-23T09:11:29.369Z,99670.72
2023-10-23T09:12:33.296Z,99669.88
2023-10-23T09:13:38.551Z,99660.31
2023-10-23T09:14:44.218Z,99662.91
2023-10-23T09:15:51.433Z,99663.81
2023-10-23T09:16:56.181Z,99652.44
2023-10-23T09:17:59.328Z,99649.81
2023-10-23T09:19:01.409Z,99653.34
2023-10-23T09:20:20.405Z,99652.41
2023-10-23T09:21:23.651Z,99645.50
2023-10-23T09:22:30.321Z,99645.50
2023-10-23T09:23:32.850Z,99642.88
2023-10-23T09:24:34.821Z,99637.66
2023-10-23T09:25:36.837Z,99635.06
2023-10-23T09:26:38.714Z,99623.69
2023-10-23T09:27:41.127Z,99634.19
2023-10-23T09:28:43.018Z,99621.09
2023-10-23T09:29:45.639Z,99619.38
2023-10-23T09:30:47.720Z,99621.97
2023-10-23T09:31:50.910Z,99611.53
2023-10-23T09:32:54.869Z,99614.97
2023-10-23T09:33:58.128Z,99606.28
2023-10-23T09:35:01.043Z,99594.94
2023-10-23T09:36:04.387Z,99586.28
2023-10-23T09:37:06.948Z,99572.28
2023-10-23T09:38:13.483Z,99561.81
2023-10-23T09:39:15.511Z,99560.94
2023-10-23T09:40:20.722Z,99558.31
2023-10-23T09:41:22.675Z,99555.69
2023-10-23T09:42:33.337Z,99566.16
2023-10-23T09:43:37.205Z,99560.09
2023-10-23T09:44:41.957Z,99563.63
2023-10-23T09:45:44.875Z,99568.84
2023-10-23T09:46:49.545Z,99569.75
2023-10-23T09:47:55.866Z,99568.88
2023-10-23T09:49:04.939Z,99567.13
2023-10-23T09:50:07.301Z,99568.94
2023-10-23T09:51:14.409Z,99581.09
2023-10-23T09:52:17.178Z,99577.59
2023-10-23T09:53:20.812Z,99582.81
2023-10-23T09:54:23.892Z,99579.34
2023-10-23T09:55:29.559Z,99575.84
2023-10-23T09:56:35.535Z,99569.75
2023-10-23T09:57:45.905Z,99571.50
2023-10-23T09:58:59.050Z,99565.38
2023-10-23T10:00:02.436Z,99554.91
2023-10-23T10:01:09.269Z,99541.81
2023-10-23T10:02:11.642Z,99542.69
2023-10-23T10:03:18.220Z,99528.75
2023-10-23T10:04:30.506Z,99533.13
2023-10-23T10:05:59.555Z,99527.84
2023-10-23T10:07:12.667Z,99531.38
2023-10-23T10:08:21.128Z,99535.72
2023-10-23T10:09:26.376Z,99533.97
2023-10-23T10:10:30.524Z,99528.75
2023-10-23T10:11:33.444Z,99528.75
2023-10-23T10:12:39.224Z,99527.03
2023-10-23T10:13:41.814Z,99520.03
2023-10-23T10:14:44.780Z,99520.94
2023-10-23T10:15:48.631Z,99514.81
2023-10-23T10:16:51.603Z,99518.31
2023-10-23T10:17:53.817Z,99516.56
2023-10-23T10:18:56.202Z,99511.31
2023-10-23T10:20:01.458Z,99509.63
2023-10-23T10:21:09.487Z,99507.84
2023-10-23T10:22:27.418Z,99513.09
2023-10-23T10:23:30.324Z,99500.88
2023-10-23T10:24:35.470Z,99508.72
2023-10-23T10:25:39.057Z,99509.56
2023-10-23T10:26:41.545Z,99501.72
2023-10-23T10:27:43.592Z,99500.88
2023-10-23T10:28:56.125Z,99495.63
2023-10-23T10:30:05.752Z,99497.34
2023-10-23T10:31:08.467Z,99493.88
2023-10-23T10:32:13.421Z,99493.88
2023-10-23T10:34:19.650Z,99482.50
2023-10-23T10:34:55.625Z,99479.03
2023-10-23T10:36:06.837Z,99477.34
2023-10-23T10:37:25.343Z,99473.84
2023-10-23T10:38:31.324Z,99479.13
2023-10-23T10:39:52.123Z,99472.94
2023-10-23T10:41:02.750Z,99477.31
2023-10-23T10:42:10.469Z,99465.13
2023-10-23T10:43:20.526Z,99468.63
2023-10-23T10:44:23.985Z,99466.91
2023-10-23T10:45:28.911Z,99464.28
2023-10-23T10:46:31.381Z,99462.47
2023-10-23T10:47:45.802Z,99465.97
2023-10-23T10:48:50.749Z,99466.84
2023-10-23T10:49:53.253Z,99460.72
2023-10-23T10:50:55.763Z,99445.94
2023-10-23T10:51:58.117Z,99453.72
2023-10-23T10:53:05.122Z,99452.00
2023-10-23T10:54:11.512Z,99448.50
2023-10-23T10:55:14.255Z,99450.22
2023-10-23T10:56:16.514Z,99451.94
2023-10-23T10:57:20.232Z,99444.94
2023-10-23T10:58:23.101Z,99433.59
2023-10-23T10:59:28.555Z,99427.47
2023-10-23T11:00:37.050Z,99421.34
2023-10-23T11:01:39.323Z,99419.63
2023-10-23T11:02:41.734Z,99408.31
2023-10-23T11:03:44.076Z,99418.78
2023-10-23T11:04:46.311Z,99408.31
2023-10-23T11:05:48.554Z,99410.94
2023-10-23T11:06:50.726Z,99417.00
2023-10-23T11:07:53.126Z,99410.03
2023-10-23T11:08:56.334Z,99410.88
2023-10-23T11:09:58.551Z,99401.28
2023-10-23T11:11:07.455Z,99398.59
2023-10-23T11:12:09.457Z,99403.84
2023-10-23T11:13:15.911Z,99391.66
2023-10-23T11:14:17.937Z,99398.59
2023-10-23T11:15:20.082Z,99392.50
2023-10-23T11:16:22.903Z,99380.28
2023-10-23T11:17:25.265Z,99376.78
2023-10-23T11:18:29.540Z,99368.06
2023-10-23T11:19:31.489Z,99354.06
2023-10-23T11:20:33.590Z,99357.59
2023-10-23T11:21:35.619Z,99357.53
2023-10-23T11:22:42.590Z,99350.56
2023-10-23T11:23:46.459Z,99345.31
2023-10-23T11:24:48.782Z,99336.59
2023-10-23T11:25:52.244Z,99322.63
2023-10-23T11:26:55.631Z,99339.19
2023-10-23T11:28:00.342Z,99340.03
2023-10-23T11:29:02.348Z,99328.75
2023-10-23T11:30:06.396Z,99322.63
2023-10-23T11:31:08.517Z,99317.38
2023-10-23T11:32:14.622Z,99325.22
2023-10-23T11:33:19.707Z,99315.63
2023-10-23T11:34:21.833Z,99315.56
2023-10-23T11:35:31.971Z,99319.94
2023-10-23T11:36:34.423Z,99331.25
2023-10-23T11:37:40.802Z,99326.03
2023-10-23T11:38:45.659Z,99326.84
2023-10-23T11:39:49.428Z,99330.34
2023-10-23T11:40:52.175Z,99330.31
2023-10-23T11:41:55.566Z,99326.78
2023-10-23T11:42:58.422Z,99321.53
2023-10-23T11:44:04.755Z,99325.00
2023-10-23T11:45:09.102Z,99313.63
2023-10-23T11:46:11.240Z,99301.41
2023-10-23T11:47:14.039Z,99284.00
2023-10-23T11:48:16.416Z,99283.94
2023-10-23T11:49:22.312Z,99279.56
2023-10-23T11:50:27.247Z,99281.22
2023-10-23T11:51:29.312Z,99274.25
2023-10-23T11:52:31.579Z,99271.63
2023-10-23T11:53:34.657Z,99273.34
2023-10-23T11:54:36.764Z,99271.59
2023-10-23T11:55:39.477Z,99276.81
2023-10-23T11:56:44.032Z,99266.34
2023-10-23T11:57:53.226Z,99245.41
2023-10-23T11:58:56.476Z,99240.16
2023-10-23T11:59:58.605Z,99243.66
2023-10-23T12:01:00.596Z,99242.78
2023-10-23T12:02:03.175Z,99244.50
2023-10-23T12:03:07.851Z,99240.16
2023-10-23T12:04:10.740Z,99243.59
2023-10-23T12:05:23.456Z,99236.53
2023-10-23T12:06:26.016Z,99240.91
2023-10-23T12:07:28.004Z,99248.78
2023-10-23T12:08:30.297Z,99250.53
2023-10-23T12:09:32.215Z,99261.84
2023-10-23T12:10:39.338Z,99263.56
2023-10-23T12:11:41.913Z,99267.03
2023-10-23T12:12:45.403Z,99267.03
2023-10-23T12:13:47.749Z,99270.53
2023-10-23T12:14:49.796Z,99275.75
2023-10-23T12:15:51.810Z,99267.03
2023-10-23T12:16:53.825Z,99269.66
2023-10-23T12:17:55.989Z,99267.84
2023-10-23T12:18:58.950Z,99271.34